SCBA/BBA METAR and TAF weather

Enter ICAO airport designator
Station Type Date Time Source
SCBA METAR 2020/10/29 17:00 UTC NOAA

SCBA 291700Z 29019KT CAVOK 14/00 Q1023


Station Type Date Time Source
SCBA Decoded METAR 2020/10/29 17:00 UTC NOAA

Balmaceda, Chile (SCBA) 45-55S 071-41W 520M
Oct 29, 2020 - 01:00 PM EDT / 2020.10.29 1700 UTC
Wind: from the WNW (290 degrees) at 22 MPH (19 KT):0
Visibility: greater than 7 mile(s):0
Temperature: 57 F (14 C)
Dew Point: 32 F (0 C)
Relative Humidity: 38%
Pressure (altimeter): 30.21 in. Hg (1023 hPa)
ob: SCBA 291700Z 29019KT CAVOK 14/00 Q1023
cycle: 17

Station Type Date Time Source
SCBA TAF 2020/10/29 18:03 UTC NOAA

TAF SCBA 291612Z 2918/3018 30018KT CAVOK TX15/2919Z TN03/3009Z
BECMG 3000/3002 30008KT

Example: see airport list